sensor_id;sensor_type;location;lat;lon;timestamp;P1;durP1;ratioP1;P2;durP2;ratioP2
52798;SDS011;38667;42.872;74.622;2023-09-07T00:00:54;10.27;;;3.95;;
52798;SDS011;38667;42.872;74.622;2023-09-07T00:03:23;17.40;;;4.28;;
52798;SDS011;38667;42.872;74.622;2023-09-07T00:05:49;15.60;;;4.28;;
52798;SDS011;38667;42.872;74.622;2023-09-07T00:08:15;10.70;;;4.25;;
52798;SDS011;38667;42.872;74.622;2023-09-07T00:10:42;14.13;;;4.13;;
52798;SDS011;38667;42.872;74.622;2023-09-07T00:13:09;11.00;;;3.97;;
52798;SDS011;38667;42.872;74.622;2023-09-07T00:15:36;15.43;;;4.40;;
52798;SDS011;38667;42.872;74.622;2023-09-07T00:18:03;14.18;;;4.32;;
52798;SDS011;38667;42.872;74.622;2023-09-07T00:20:30;14.85;;;4.20;;
52798;SDS011;38667;42.872;74.622;2023-09-07T00:22:56;9.88;;;4.20;;
52798;SDS011;38667;42.872;74.622;2023-09-07T00:25:22;19.13;;;4.82;;
52798;SDS011;38667;42.872;74.622;2023-09-07T00:27:48;12.82;;;4.00;;
52798;SDS011;38667;42.872;74.622;2023-09-07T00:30:16;9.95;;;3.97;;
52798;SDS011;38667;42.872;74.622;2023-09-07T00:32:43;15.65;;;3.97;;
52798;SDS011;38667;42.872;74.622;2023-09-07T00:35:09;19.80;;;5.78;;
52798;SDS011;38667;42.872;74.622;2023-09-07T00:37:36;23.52;;;6.43;;
52798;SDS011;38667;42.872;74.622;2023-09-07T00:40:03;29.75;;;7.60;;
52798;SDS011;38667;42.872;74.622;2023-09-07T00:42:30;21.75;;;6.88;;
52798;SDS011;38667;42.872;74.622;2023-09-07T00:44:56;18.58;;;5.80;;
52798;SDS011;38667;42.872;74.622;2023-09-07T00:47:24;24.08;;;6.05;;
52798;SDS011;38667;42.872;74.622;2023-09-07T00:49:50;22.27;;;6.50;;
52798;SDS011;38667;42.872;74.622;2023-09-07T00:52:16;22.30;;;6.43;;
52798;SDS011;38667;42.872;74.622;2023-09-07T00:54:43;32.38;;;7.45;;
52798;SDS011;38667;42.872;74.622;2023-09-07T00:57:10;36.45;;;8.77;;
52798;SDS011;38667;42.872;74.622;2023-09-07T00:59:37;36.60;;;7.70;;
52798;SDS011;38667;42.872;74.622;2023-09-07T01:02:03;31.02;;;7.57;;
52798;SDS011;38667;42.872;74.622;2023-09-07T01:04:31;22.30;;;6.47;;
52798;SDS011;38667;42.872;74.622;2023-09-07T01:07:00;31.20;;;7.78;;
52798;SDS011;38667;42.872;74.622;2023-09-07T01:09:33;39.42;;;7.47;;
52798;SDS011;38667;42.872;74.622;2023-09-07T01:12:02;25.52;;;6.85;;
52798;SDS011;38667;42.872;74.622;2023-09-07T01:14:28;21.45;;;6.45;;
52798;SDS011;38667;42.872;74.622;2023-09-07T01:16:55;23.35;;;6.20;;
52798;SDS011;38667;42.872;74.622;2023-09-07T01:19:21;24.65;;;6.57;;
52798;SDS011;38667;42.872;74.622;2023-09-07T01:21:49;18.45;;;5.95;;
52798;SDS011;38667;42.872;74.622;2023-09-07T01:24:16;22.75;;;6.80;;
52798;SDS011;38667;42.872;74.622;2023-09-07T01:26:44;25.35;;;6.30;;
52798;SDS011;38667;42.872;74.622;2023-09-07T01:29:11;18.67;;;5.70;;
52798;SDS011;38667;42.872;74.622;2023-09-07T01:31:37;25.50;;;6.25;;
52798;SDS011;38667;42.872;74.622;2023-09-07T01:34:04;21.70;;;6.25;;
52798;SDS011;38667;42.872;74.622;2023-09-07T01:36:30;23.25;;;6.32;;
52798;SDS011;38667;42.872;74.622;2023-09-07T01:38:58;33.63;;;7.63;;
52798;SDS011;38667;42.872;74.622;2023-09-07T01:41:24;31.98;;;7.47;;
52798;SDS011;38667;42.872;74.622;2023-09-07T01:43:50;25.45;;;7.78;;
52798;SDS011;38667;42.872;74.622;2023-09-07T01:46:17;26.95;;;7.03;;
52798;SDS011;38667;42.872;74.622;2023-09-07T01:48:43;23.90;;;7.57;;
52798;SDS011;38667;42.872;74.622;2023-09-07T01:51:09;25.77;;;6.15;;
52798;SDS011;38667;42.872;74.622;2023-09-07T01:53:36;18.73;;;5.97;;
52798;SDS011;38667;42.872;74.622;2023-09-07T01:56:03;18.27;;;6.22;;
52798;SDS011;38667;42.872;74.622;2023-09-07T01:58:30;30.08;;;7.15;;
52798;SDS011;38667;42.872;74.622;2023-09-07T02:00:56;27.67;;;6.90;;
52798;SDS011;38667;42.872;74.622;2023-09-07T02:03:23;29.08;;;7.93;;
52798;SDS011;38667;42.872;74.622;2023-09-07T02:05:49;31.20;;;7.00;;
52798;SDS011;38667;42.872;74.622;2023-09-07T02:08:17;22.48;;;6.32;;
52798;SDS011;38667;42.872;74.622;2023-09-07T02:10:44;27.52;;;6.95;;
52798;SDS011;38667;42.872;74.622;2023-09-07T02:13:11;23.65;;;7.70;;
52798;SDS011;38667;42.872;74.622;2023-09-07T02:15:38;35.63;;;9.15;;
52798;SDS011;38667;42.872;74.622;2023-09-07T02:18:04;23.70;;;8.27;;
52798;SDS011;38667;42.872;74.622;2023-09-07T02:20:31;30.25;;;8.57;;
52798;SDS011;38667;42.872;74.622;2023-09-07T02:22:57;40.35;;;8.57;;
52798;SDS011;38667;42.872;74.622;2023-09-07T02:25:24;19.95;;;6.50;;
52798;SDS011;38667;42.872;74.622;2023-09-07T02:27:50;19.45;;;6.70;;
52798;SDS011;38667;42.872;74.622;2023-09-07T02:30:18;21.08;;;6.32;;
52798;SDS011;38667;42.872;74.622;2023-09-07T02:32:44;16.70;;;6.05;;
52798;SDS011;38667;42.872;74.622;2023-09-07T02:35:11;18.25;;;6.40;;
52798;SDS011;38667;42.872;74.622;2023-09-07T02:37:37;14.63;;;4.95;;
52798;SDS011;38667;42.872;74.622;2023-09-07T02:40:04;18.05;;;5.68;;
52798;SDS011;38667;42.872;74.622;2023-09-07T02:42:31;15.10;;;6.43;;
52798;SDS011;38667;42.872;74.622;2023-09-07T02:44:57;11.05;;;4.53;;
52798;SDS011;38667;42.872;74.622;2023-09-07T02:47:25;16.60;;;5.57;;
52798;SDS011;38667;42.872;74.622;2023-09-07T02:49:51;13.93;;;5.28;;
52798;SDS011;38667;42.872;74.622;2023-09-07T02:52:17;14.13;;;6.43;;
52798;SDS011;38667;42.872;74.622;2023-09-07T02:54:44;13.77;;;6.47;;
52798;SDS011;38667;42.872;74.622;2023-09-07T02:57:11;10.48;;;5.68;;
52798;SDS011;38667;42.872;74.622;2023-09-07T02:59:37;23.55;;;6.95;;
52798;SDS011;38667;42.872;74.622;2023-09-07T03:02:03;13.15;;;5.65;;
52798;SDS011;38667;42.872;74.622;2023-09-07T03:04:31;12.35;;;5.38;;
52798;SDS011;38667;42.872;74.622;2023-09-07T03:06:57;18.42;;;6.13;;
52798;SDS011;38667;42.872;74.622;2023-09-07T03:09:26;17.20;;;6.50;;
52798;SDS011;38667;42.872;74.622;2023-09-07T03:11:52;16.95;;;6.18;;
52798;SDS011;38667;42.872;74.622;2023-09-07T03:14:18;15.02;;;5.65;;
52798;SDS011;38667;42.872;74.622;2023-09-07T03:16:45;17.02;;;6.05;;
52798;SDS011;38667;42.872;74.622;2023-09-07T03:19:11;14.40;;;5.90;;
52798;SDS011;38667;42.872;74.622;2023-09-07T03:21:39;13.52;;;6.00;;
52798;SDS011;38667;42.872;74.622;2023-09-07T03:24:05;15.88;;;6.40;;
52798;SDS011;38667;42.872;74.622;2023-09-07T03:26:32;13.60;;;5.20;;
52798;SDS011;38667;42.872;74.622;2023-09-07T03:28:58;11.57;;;5.30;;
52798;SDS011;38667;42.872;74.622;2023-09-07T03:31:24;20.75;;;6.32;;
52798;SDS011;38667;42.872;74.622;2023-09-07T03:33:51;19.85;;;6.32;;
52798;SDS011;38667;42.872;74.622;2023-09-07T03:36:17;28.70;;;7.40;;
52798;SDS011;38667;42.872;74.622;2023-09-07T03:38:45;18.23;;;6.45;;
52798;SDS011;38667;42.872;74.622;2023-09-07T03:41:11;19.63;;;7.75;;
52798;SDS011;38667;42.872;74.622;2023-09-07T03:43:37;21.83;;;7.25;;
52798;SDS011;38667;42.872;74.622;2023-09-07T03:46:04;19.55;;;6.68;;
52798;SDS011;38667;42.872;74.622;2023-09-07T03:48:30;21.23;;;5.72;;
52798;SDS011;38667;42.872;74.622;2023-09-07T03:50:57;11.98;;;5.10;;
52798;SDS011;38667;42.872;74.622;2023-09-07T03:53:23;19.55;;;6.40;;
52798;SDS011;38667;42.872;74.622;2023-09-07T03:55:51;18.55;;;6.15;;
52798;SDS011;38667;42.872;74.622;2023-09-07T03:58:17;15.18;;;6.90;;
52798;SDS011;38667;42.872;74.622;2023-09-07T04:00:43;12.60;;;5.65;;
52798;SDS011;38667;42.872;74.622;2023-09-07T04:03:10;19.10;;;6.32;;
52798;SDS011;38667;42.872;74.622;2023-09-07T04:05:36;16.10;;;5.82;;
52798;SDS011;38667;42.872;74.622;2023-09-07T04:08:03;13.30;;;6.80;;
52798;SDS011;38667;42.872;74.622;2023-09-07T04:10:30;16.25;;;7.45;;
52798;SDS011;38667;42.872;74.622;2023-09-07T04:12:58;21.73;;;10.85;;
52798;SDS011;38667;42.872;74.622;2023-09-07T04:15:24;18.27;;;10.52;;
52798;SDS011;38667;42.872;74.622;2023-09-07T04:17:50;19.60;;;10.27;;
52798;SDS011;38667;42.872;74.622;2023-09-07T04:20:17;11.85;;;7.78;;
52798;SDS011;38667;42.872;74.622;2023-09-07T04:22:43;19.15;;;6.88;;
52798;SDS011;38667;42.872;74.622;2023-09-07T04:25:09;13.80;;;6.32;;
52798;SDS011;38667;42.872;74.622;2023-09-07T04:27:36;12.95;;;7.63;;
52798;SDS011;38667;42.872;74.622;2023-09-07T04:30:04;14.10;;;7.93;;
52798;SDS011;38667;42.872;74.622;2023-09-07T04:32:31;16.25;;;8.15;;
52798;SDS011;38667;42.872;74.622;2023-09-07T04:34:57;18.88;;;7.30;;
52798;SDS011;38667;42.872;74.622;2023-09-07T04:37:24;12.48;;;7.57;;
52798;SDS011;38667;42.872;74.622;2023-09-07T04:39:50;21.00;;;9.30;;
52798;SDS011;38667;42.872;74.622;2023-09-07T04:42:17;15.40;;;7.85;;
52798;SDS011;38667;42.872;74.622;2023-09-07T04:44:44;13.20;;;7.15;;
52798;SDS011;38667;42.872;74.622;2023-09-07T04:47:12;11.75;;;5.35;;
52798;SDS011;38667;42.872;74.622;2023-09-07T04:49:38;11.02;;;5.47;;
52798;SDS011;38667;42.872;74.622;2023-09-07T04:52:05;11.05;;;5.95;;
52798;SDS011;38667;42.872;74.622;2023-09-07T04:54:31;9.55;;;5.10;;
52798;SDS011;38667;42.872;74.622;2023-09-07T04:56:57;10.77;;;4.50;;
52798;SDS011;38667;42.872;74.622;2023-09-07T04:59:24;10.02;;;4.57;;
52798;SDS011;38667;42.872;74.622;2023-09-07T05:01:50;18.40;;;4.25;;
52798;SDS011;38667;42.872;74.622;2023-09-07T05:04:18;18.23;;;4.70;;
52798;SDS011;38667;42.872;74.622;2023-09-07T05:06:44;14.93;;;3.60;;
52798;SDS011;38667;42.872;74.622;2023-09-07T05:09:10;10.30;;;3.65;;
52798;SDS011;38667;42.872;74.622;2023-09-07T05:11:37;15.80;;;4.22;;
52798;SDS011;38667;42.872;74.622;2023-09-07T05:14:03;9.68;;;3.70;;
52798;SDS011;38667;42.872;74.622;2023-09-07T05:16:29;12.05;;;3.70;;
52798;SDS011;38667;42.872;74.622;2023-09-07T05:18:56;9.45;;;3.67;;
52798;SDS011;38667;42.872;74.622;2023-09-07T05:21:23;15.20;;;3.70;;
52798;SDS011;38667;42.872;74.622;2023-09-07T05:23:50;9.73;;;3.53;;
52798;SDS011;38667;42.872;74.622;2023-09-07T05:26:20;16.75;;;4.53;;
52798;SDS011;38667;42.872;74.622;2023-09-07T05:28:47;19.63;;;4.95;;
52798;SDS011;38667;42.872;74.622;2023-09-07T05:31:13;12.43;;;4.55;;
52798;SDS011;38667;42.872;74.622;2023-09-07T05:33:39;10.05;;;4.07;;
52798;SDS011;38667;42.872;74.622;2023-09-07T05:36:06;15.80;;;4.95;;
52798;SDS011;38667;42.872;74.622;2023-09-07T05:38:34;25.50;;;4.57;;
52798;SDS011;38667;42.872;74.622;2023-09-07T05:41:00;9.18;;;3.60;;
52798;SDS011;38667;42.872;74.622;2023-09-07T05:43:26;15.25;;;3.70;;
52798;SDS011;38667;42.872;74.622;2023-09-07T05:45:53;14.93;;;3.80;;
52798;SDS011;38667;42.872;74.622;2023-09-07T05:48:19;8.38;;;3.65;;
52798;SDS011;38667;42.872;74.622;2023-09-07T05:50:45;12.02;;;3.53;;
52798;SDS011;38667;42.872;74.622;2023-09-07T05:53:12;10.93;;;3.80;;
52798;SDS011;38667;42.872;74.622;2023-09-07T05:55:39;15.00;;;4.00;;
52798;SDS011;38667;42.872;74.622;2023-09-07T05:58:06;8.57;;;3.38;;
52798;SDS011;38667;42.872;74.622;2023-09-07T06:00:33;16.20;;;4.78;;
52798;SDS011;38667;42.872;74.622;2023-09-07T06:03:00;10.77;;;3.75;;
52798;SDS011;38667;42.872;74.622;2023-09-07T06:05:27;14.07;;;4.47;;
52798;SDS011;38667;42.872;74.622;2023-09-07T06:07:53;10.85;;;3.80;;
52798;SDS011;38667;42.872;74.622;2023-09-07T06:10:19;9.65;;;3.60;;
52798;SDS011;38667;42.872;74.622;2023-09-07T06:12:47;12.82;;;4.30;;
52798;SDS011;38667;42.872;74.622;2023-09-07T06:15:13;16.15;;;3.63;;
52798;SDS011;38667;42.872;74.622;2023-09-07T06:17:40;19.15;;;4.00;;
52798;SDS011;38667;42.872;74.622;2023-09-07T06:20:06;16.42;;;3.72;;
52798;SDS011;38667;42.872;74.622;2023-09-07T06:22:34;18.30;;;4.70;;
52798;SDS011;38667;42.872;74.622;2023-09-07T06:25:00;24.83;;;5.25;;
52798;SDS011;38667;42.872;74.622;2023-09-07T06:27:26;23.65;;;6.55;;
52798;SDS011;38667;42.872;74.622;2023-09-07T06:29:54;15.13;;;5.03;;
52798;SDS011;38667;42.872;74.622;2023-09-07T06:32:21;16.50;;;5.30;;
52798;SDS011;38667;42.872;74.622;2023-09-07T06:34:48;20.30;;;5.60;;
52798;SDS011;38667;42.872;74.622;2023-09-07T06:37:14;17.30;;;4.85;;
52798;SDS011;38667;42.872;74.622;2023-09-07T06:39:41;19.73;;;5.47;;
52798;SDS011;38667;42.872;74.622;2023-09-07T06:42:07;13.57;;;4.38;;
52798;SDS011;38667;42.872;74.622;2023-09-07T06:44:33;13.00;;;3.58;;
52798;SDS011;38667;42.872;74.622;2023-09-07T06:47:01;10.50;;;3.58;;
52798;SDS011;38667;42.872;74.622;2023-09-07T06:49:28;18.00;;;4.35;;
52798;SDS011;38667;42.872;74.622;2023-09-07T06:51:54;11.10;;;3.75;;
52798;SDS011;38667;42.872;74.622;2023-09-07T06:54:20;18.52;;;4.80;;
52798;SDS011;38667;42.872;74.622;2023-09-07T06:56:47;12.43;;;6.10;;
52798;SDS011;38667;42.872;74.622;2023-09-07T06:59:13;7.25;;;3.90;;
52798;SDS011;38667;42.872;74.622;2023-09-07T07:01:39;11.77;;;3.55;;
52798;SDS011;38667;42.872;74.622;2023-09-07T07:04:07;9.02;;;4.20;;
52798;SDS011;38667;42.872;74.622;2023-09-07T07:06:34;11.27;;;3.40;;
52798;SDS011;38667;42.872;74.622;2023-09-07T07:09:00;9.57;;;3.33;;
52798;SDS011;38667;42.872;74.622;2023-09-07T07:11:26;9.07;;;3.20;;
52798;SDS011;38667;42.872;74.622;2023-09-07T07:13:52;4.53;;;2.60;;
52798;SDS011;38667;42.872;74.622;2023-09-07T07:16:19;11.60;;;3.78;;
52798;SDS011;38667;42.872;74.622;2023-09-07T07:18:45;12.75;;;5.15;;
52798;SDS011;38667;42.872;74.622;2023-09-07T07:21:13;9.63;;;4.30;;
52798;SDS011;38667;42.872;74.622;2023-09-07T07:23:39;11.98;;;3.72;;
52798;SDS011;38667;42.872;74.622;2023-09-07T07:26:06;7.85;;;3.95;;
52798;SDS011;38667;42.872;74.622;2023-09-07T07:28:32;9.48;;;4.65;;
52798;SDS011;38667;42.872;74.622;2023-09-07T07:30:58;14.32;;;5.13;;
52798;SDS011;38667;42.872;74.622;2023-09-07T07:33:31;11.85;;;3.55;;
52798;SDS011;38667;42.872;74.622;2023-09-07T07:35:58;7.60;;;3.70;;
52798;SDS011;38667;42.872;74.622;2023-09-07T07:38:26;6.85;;;3.65;;
52798;SDS011;38667;42.872;74.622;2023-09-07T07:40:52;9.45;;;3.83;;
52798;SDS011;38667;42.872;74.622;2023-09-07T07:43:18;8.73;;;3.60;;
52798;SDS011;38667;42.872;74.622;2023-09-07T07:45:45;12.57;;;3.88;;
52798;SDS011;38667;42.872;74.622;2023-09-07T07:48:11;19.17;;;3.97;;
52798;SDS011;38667;42.872;74.622;2023-09-07T07:50:37;10.20;;;3.80;;
52798;SDS011;38667;42.872;74.622;2023-09-07T07:53:04;10.55;;;2.92;;
52798;SDS011;38667;42.872;74.622;2023-09-07T07:55:33;8.90;;;2.83;;
52798;SDS011;38667;42.872;74.622;2023-09-07T07:58:00;12.50;;;3.22;;
52798;SDS011;38667;42.872;74.622;2023-09-07T08:00:26;5.43;;;2.80;;
52798;SDS011;38667;42.872;74.622;2023-09-07T08:02:52;21.45;;;3.40;;
52798;SDS011;38667;42.872;74.622;2023-09-07T08:05:19;13.68;;;3.15;;
52798;SDS011;38667;42.872;74.622;2023-09-07T08:07:45;6.53;;;2.80;;
52798;SDS011;38667;42.872;74.622;2023-09-07T08:10:11;5.00;;;2.63;;
52798;SDS011;38667;42.872;74.622;2023-09-07T08:12:39;21.70;;;3.85;;
52798;SDS011;38667;42.872;74.622;2023-09-07T08:15:06;12.45;;;4.03;;
52798;SDS011;38667;42.872;74.622;2023-09-07T08:17:32;15.48;;;3.80;;
52798;SDS011;38667;42.872;74.622;2023-09-07T08:19:59;8.88;;;3.35;;
52798;SDS011;38667;42.872;74.622;2023-09-07T08:22:25;15.25;;;3.17;;
52798;SDS011;38667;42.872;74.622;2023-09-07T08:24:51;17.10;;;3.55;;
52798;SDS011;38667;42.872;74.622;2023-09-07T08:27:17;8.20;;;2.55;;
52798;SDS011;38667;42.872;74.622;2023-09-07T08:29:45;8.23;;;3.10;;
52798;SDS011;38667;42.872;74.622;2023-09-07T08:32:12;11.45;;;3.15;;
52798;SDS011;38667;42.872;74.622;2023-09-07T08:34:38;10.50;;;3.00;;
52798;SDS011;38667;42.872;74.622;2023-09-07T08:37:04;7.93;;;2.80;;
52798;SDS011;38667;42.872;74.622;2023-09-07T08:39:31;12.88;;;3.25;;
52798;SDS011;38667;42.872;74.622;2023-09-07T08:41:57;7.20;;;2.90;;
52798;SDS011;38667;42.872;74.622;2023-09-07T08:44:23;10.40;;;5.00;;
52798;SDS011;38667;42.872;74.622;2023-09-07T08:46:53;9.85;;;3.60;;
52798;SDS011;38667;42.872;74.622;2023-09-07T08:49:20;7.38;;;2.88;;
52798;SDS011;38667;42.872;74.622;2023-09-07T08:51:46;7.72;;;2.90;;
52798;SDS011;38667;42.872;74.622;2023-09-07T08:54:13;6.22;;;2.17;;
52798;SDS011;38667;42.872;74.622;2023-09-07T08:56:40;6.68;;;2.85;;
52798;SDS011;38667;42.872;74.622;2023-09-07T08:59:06;5.88;;;2.90;;
52798;SDS011;38667;42.872;74.622;2023-09-07T09:01:33;8.48;;;2.92;;
52798;SDS011;38667;42.872;74.622;2023-09-07T09:04:01;6.97;;;2.50;;
52798;SDS011;38667;42.872;74.622;2023-09-07T09:06:27;11.85;;;3.00;;
52798;SDS011;38667;42.872;74.622;2023-09-07T09:08:54;6.15;;;2.83;;
52798;SDS011;38667;42.872;74.622;2023-09-07T09:11:22;10.45;;;2.67;;
52798;SDS011;38667;42.872;74.622;2023-09-07T09:13:49;7.95;;;2.83;;
52798;SDS011;38667;42.872;74.622;2023-09-07T09:16:17;9.48;;;3.42;;
52798;SDS011;38667;42.872;74.622;2023-09-07T09:18:47;6.55;;;3.10;;
52798;SDS011;38667;42.872;74.622;2023-09-07T09:21:15;10.77;;;3.05;;
52798;SDS011;38667;42.872;74.622;2023-09-07T09:23:41;10.50;;;2.95;;
52798;SDS011;38667;42.872;74.622;2023-09-07T09:26:08;5.35;;;2.72;;
52798;SDS011;38667;42.872;74.622;2023-09-07T09:28:36;9.20;;;2.92;;
52798;SDS011;38667;42.872;74.622;2023-09-07T09:31:02;8.48;;;2.55;;
52798;SDS011;38667;42.872;74.622;2023-09-07T09:33:30;5.07;;;2.40;;
52798;SDS011;38667;42.872;74.622;2023-09-07T09:35:57;9.15;;;2.53;;
52798;SDS011;38667;42.872;74.622;2023-09-07T09:38:25;9.77;;;2.60;;
52798;SDS011;38667;42.872;74.622;2023-09-07T09:40:51;7.80;;;3.08;;
52798;SDS011;38667;42.872;74.622;2023-09-07T09:43:19;8.07;;;2.95;;
52798;SDS011;38667;42.872;74.622;2023-09-07T09:45:45;10.40;;;3.10;;
52798;SDS011;38667;42.872;74.622;2023-09-07T09:48:13;5.47;;;2.70;;
52798;SDS011;38667;42.872;74.622;2023-09-07T09:50:41;11.27;;;2.53;;
52798;SDS011;38667;42.872;74.622;2023-09-07T09:53:08;8.13;;;2.40;;
52798;SDS011;38667;42.872;74.622;2023-09-07T09:55:39;5.78;;;2.15;;
52798;SDS011;38667;42.872;74.622;2023-09-07T09:58:05;5.30;;;2.33;;
52798;SDS011;38667;42.872;74.622;2023-09-07T10:00:31;6.80;;;2.05;;
52798;SDS011;38667;42.872;74.622;2023-09-07T10:03:00;9.90;;;2.10;;
52798;SDS011;38667;42.872;74.622;2023-09-07T10:05:31;7.28;;;2.13;;
52798;SDS011;38667;42.872;74.622;2023-09-07T10:08:00;11.15;;;2.00;;
52798;SDS011;38667;42.872;74.622;2023-09-07T10:10:31;5.97;;;2.17;;
52798;SDS011;38667;42.872;74.622;2023-09-07T10:13:01;4.93;;;1.98;;
52798;SDS011;38667;42.872;74.622;2023-09-07T10:15:27;8.43;;;2.30;;
52798;SDS011;38667;42.872;74.622;2023-09-07T10:18:04;8.45;;;2.38;;
52798;SDS011;38667;42.872;74.622;2023-09-07T10:20:34;7.28;;;2.20;;
52798;SDS011;38667;42.872;74.622;2023-09-07T10:23:15;5.65;;;2.40;;
52798;SDS011;38667;42.872;74.622;2023-09-07T10:25:42;8.65;;;2.30;;
52798;SDS011;38667;42.872;74.622;2023-09-07T10:28:21;5.88;;;2.08;;
52798;SDS011;38667;42.872;74.622;2023-09-07T10:31:00;6.68;;;2.17;;
52798;SDS011;38667;42.872;74.622;2023-09-07T10:33:28;5.57;;;2.30;;
52798;SDS011;38667;42.872;74.622;2023-09-07T10:35:54;4.82;;;2.42;;
52798;SDS011;38667;42.872;74.622;2023-09-07T10:38:20;8.02;;;3.03;;
52798;SDS011;38667;42.872;74.622;2023-09-07T10:40:48;5.78;;;2.10;;
52798;SDS011;38667;42.872;74.622;2023-09-07T10:43:21;8.38;;;2.20;;
52798;SDS011;38667;42.872;74.622;2023-09-07T10:45:47;4.30;;;1.40;;
52798;SDS011;38667;42.872;74.622;2023-09-07T10:48:14;6.30;;;2.50;;
52798;SDS011;38667;42.872;74.622;2023-09-07T10:50:44;6.47;;;1.98;;
52798;SDS011;38667;42.872;74.622;2023-09-07T10:53:12;7.13;;;2.60;;
52798;SDS011;38667;42.872;74.622;2023-09-07T10:55:39;8.35;;;1.70;;
52798;SDS011;38667;42.872;74.622;2023-09-07T10:58:06;3.08;;;2.00;;
52798;SDS011;38667;42.872;74.622;2023-09-07T11:00:34;2.90;;;1.50;;
52798;SDS011;38667;42.872;74.622;2023-09-07T11:03:06;6.47;;;1.98;;
52798;SDS011;38667;42.872;74.622;2023-09-07T11:05:33;4.18;;;2.15;;
52798;SDS011;38667;42.872;74.622;2023-09-07T11:08:00;4.82;;;2.13;;
52798;SDS011;38667;42.872;74.622;2023-09-07T11:10:27;4.40;;;2.42;;
52798;SDS011;38667;42.872;74.622;2023-09-07T11:12:53;7.03;;;1.75;;
52798;SDS011;38667;42.872;74.622;2023-09-07T11:15:26;4.03;;;2.15;;
52798;SDS011;38667;42.872;74.622;2023-09-07T11:17:58;6.72;;;2.10;;
52798;SDS011;38667;42.872;74.622;2023-09-07T11:20:29;7.22;;;2.65;;
52798;SDS011;38667;42.872;74.622;2023-09-07T11:22:55;8.18;;;2.22;;
52798;SDS011;38667;42.872;74.622;2023-09-07T11:25:22;6.30;;;2.70;;
52798;SDS011;38667;42.872;74.622;2023-09-07T11:27:48;7.97;;;2.60;;
52798;SDS011;38667;42.872;74.622;2023-09-07T11:30:16;7.32;;;2.53;;
52798;SDS011;38667;42.872;74.622;2023-09-07T11:32:42;5.25;;;2.53;;
52798;SDS011;38667;42.872;74.622;2023-09-07T11:35:10;4.30;;;2.05;;
52798;SDS011;38667;42.872;74.622;2023-09-07T11:37:36;3.92;;;2.17;;
52798;SDS011;38667;42.872;74.622;2023-09-07T11:40:03;5.30;;;2.53;;
52798;SDS011;38667;42.872;74.622;2023-09-07T11:42:30;6.60;;;2.28;;
52798;SDS011;38667;42.872;74.622;2023-09-07T11:44:56;6.75;;;2.35;;
52798;SDS011;38667;42.872;74.622;2023-09-07T11:47:23;7.13;;;2.70;;
52798;SDS011;38667;42.872;74.622;2023-09-07T11:49:49;7.00;;;2.33;;
52798;SDS011;38667;42.872;74.622;2023-09-07T11:52:17;4.97;;;3.13;;
52798;SDS011;38667;42.872;74.622;2023-09-07T11:54:43;6.22;;;2.92;;
52798;SDS011;38667;42.872;74.622;2023-09-07T11:57:10;5.95;;;2.78;;
52798;SDS011;38667;42.872;74.622;2023-09-07T11:59:36;19.63;;;3.05;;
52798;SDS011;38667;42.872;74.622;2023-09-07T12:02:02;6.30;;;2.30;;
52798;SDS011;38667;42.872;74.622;2023-09-07T12:04:29;8.63;;;2.92;;
52798;SDS011;38667;42.872;74.622;2023-09-07T12:06:55;7.97;;;2.83;;
52798;SDS011;38667;42.872;74.622;2023-09-07T12:09:23;10.07;;;3.78;;
52798;SDS011;38667;42.872;74.622;2023-09-07T12:11:49;6.88;;;2.88;;
52798;SDS011;38667;42.872;74.622;2023-09-07T12:14:16;7.15;;;2.50;;
52798;SDS011;38667;42.872;74.622;2023-09-07T12:16:42;5.10;;;2.38;;
52798;SDS011;38667;42.872;74.622;2023-09-07T12:19:08;8.98;;;2.60;;
52798;SDS011;38667;42.872;74.622;2023-09-07T12:21:34;4.47;;;2.13;;
52798;SDS011;38667;42.872;74.622;2023-09-07T12:24:01;6.82;;;2.50;;
52798;SDS011;38667;42.872;74.622;2023-09-07T12:26:29;4.03;;;2.08;;
52798;SDS011;38667;42.872;74.622;2023-09-07T12:28:55;3.05;;;2.10;;
52798;SDS011;38667;42.872;74.622;2023-09-07T12:31:21;6.32;;;2.42;;
52798;SDS011;38667;42.872;74.622;2023-09-07T12:33:52;7.95;;;2.50;;
52798;SDS011;38667;42.872;74.622;2023-09-07T12:36:18;5.50;;;2.20;;
52798;SDS011;38667;42.872;74.622;2023-09-07T12:38:44;6.70;;;2.55;;
52798;SDS011;38667;42.872;74.622;2023-09-07T12:41:11;6.07;;;2.80;;
52798;SDS011;38667;42.872;74.622;2023-09-07T12:43:38;9.32;;;3.25;;
52798;SDS011;38667;42.872;74.622;2023-09-07T12:46:05;10.05;;;2.95;;
52798;SDS011;38667;42.872;74.622;2023-09-07T12:48:31;5.60;;;3.10;;
52798;SDS011;38667;42.872;74.622;2023-09-07T12:50:57;11.70;;;3.83;;
52798;SDS011;38667;42.872;74.622;2023-09-07T12:53:24;10.55;;;3.05;;
52798;SDS011;38667;42.872;74.622;2023-09-07T12:55:56;11.48;;;2.80;;
52798;SDS011;38667;42.872;74.622;2023-09-07T12:58:25;9.13;;;3.08;;
52798;SDS011;38667;42.872;74.622;2023-09-07T13:01:00;8.90;;;3.00;;
52798;SDS011;38667;42.872;74.622;2023-09-07T13:03:30;9.30;;;3.30;;
52798;SDS011;38667;42.872;74.622;2023-09-07T13:06:01;5.72;;;2.72;;
52798;SDS011;38667;42.872;74.622;2023-09-07T13:08:36;6.80;;;2.50;;
52798;SDS011;38667;42.872;74.622;2023-09-07T13:11:05;6.78;;;2.90;;
52798;SDS011;38667;42.872;74.622;2023-09-07T13:13:34;7.47;;;3.03;;
52798;SDS011;38667;42.872;74.622;2023-09-07T13:16:02;16.25;;;4.78;;
52798;SDS011;38667;42.872;74.622;2023-09-07T13:18:28;19.23;;;6.40;;
52798;SDS011;38667;42.872;74.622;2023-09-07T13:20:55;28.92;;;7.15;;
52798;SDS011;38667;42.872;74.622;2023-09-07T13:23:21;16.65;;;5.97;;
52798;SDS011;38667;42.872;74.622;2023-09-07T13:25:48;16.58;;;5.68;;
52798;SDS011;38667;42.872;74.622;2023-09-07T13:28:14;21.13;;;6.30;;
52798;SDS011;38667;42.872;74.622;2023-09-07T13:30:40;21.50;;;8.10;;
52798;SDS011;38667;42.872;74.622;2023-09-07T13:33:08;19.42;;;7.35;;
52798;SDS011;38667;42.872;74.622;2023-09-07T13:35:34;34.47;;;12.75;;
52798;SDS011;38667;42.872;74.622;2023-09-07T13:38:01;35.15;;;15.38;;
52798;SDS011;38667;42.872;74.622;2023-09-07T13:40:28;37.38;;;19.45;;
52798;SDS011;38667;42.872;74.622;2023-09-07T13:42:54;32.95;;;16.25;;
52798;SDS011;38667;42.872;74.622;2023-09-07T13:45:21;28.33;;;12.10;;
52798;SDS011;38667;42.872;74.622;2023-09-07T13:47:47;33.25;;;12.20;;
52798;SDS011;38667;42.872;74.622;2023-09-07T13:50:15;37.47;;;10.27;;
52798;SDS011;38667;42.872;74.622;2023-09-07T13:52:42;28.52;;;11.38;;
52798;SDS011;38667;42.872;74.622;2023-09-07T13:55:08;37.70;;;11.63;;
52798;SDS011;38667;42.872;74.622;2023-09-07T13:57:34;35.17;;;12.60;;
52798;SDS011;38667;42.872;74.622;2023-09-07T14:00:01;42.03;;;13.60;;
52798;SDS011;38667;42.872;74.622;2023-09-07T14:02:28;41.72;;;14.10;;
52798;SDS011;38667;42.872;74.622;2023-09-07T14:04:54;35.33;;;12.93;;
52798;SDS011;38667;42.872;74.622;2023-09-07T14:07:22;32.13;;;12.48;;
52798;SDS011;38667;42.872;74.622;2023-09-07T14:09:48;22.70;;;10.43;;
52798;SDS011;38667;42.872;74.622;2023-09-07T14:12:15;22.30;;;9.15;;
52798;SDS011;38667;42.872;74.622;2023-09-07T14:14:41;23.85;;;9.55;;
52798;SDS011;38667;42.872;74.622;2023-09-07T14:17:07;26.25;;;10.38;;
52798;SDS011;38667;42.872;74.622;2023-09-07T14:19:33;33.95;;;10.85;;
52798;SDS011;38667;42.872;74.622;2023-09-07T14:22:00;40.25;;;11.82;;
52798;SDS011;38667;42.872;74.622;2023-09-07T14:24:28;28.15;;;12.13;;